createdAt,value
2022-12-12T00:01:01.358Z,15.37
2022-12-12T00:03:31.700Z,16.03
2022-12-12T00:05:59.508Z,16.50
2022-12-12T00:08:26.890Z,16.93
2022-12-12T00:10:54.361Z,17.17
2022-12-12T00:13:21.626Z,15.47
2022-12-12T00:15:49.131Z,15.47
2022-12-12T00:18:16.644Z,15.17
2022-12-12T00:20:43.972Z,17.73
2022-12-12T00:23:11.196Z,16.33
2022-12-12T00:25:39.018Z,16.63
2022-12-12T00:28:06.436Z,16.80
2022-12-12T00:30:33.862Z,15.90
2022-12-12T00:33:01.197Z,15.67
2022-12-12T00:35:28.415Z,16.27
2022-12-12T00:37:55.653Z,16.37
2022-12-12T00:40:23.139Z,15.57
2022-12-12T00:42:50.415Z,15.37
2022-12-12T00:45:17.701Z,16.37
2022-12-12T00:47:44.960Z,15.77
2022-12-12T00:50:12.337Z,16.10
2022-12-12T00:52:40.144Z,16.37
2022-12-12T00:55:08.121Z,15.80
2022-12-12T00:57:35.449Z,16.60
2022-12-12T01:00:04.467Z,14.60
2022-12-12T01:02:32.013Z,14.67
2022-12-12T01:04:59.689Z,15.57
2022-12-12T01:07:27.435Z,16.40
2022-12-12T01:09:54.757Z,16.43
2022-12-12T01:12:22.240Z,14.80
2022-12-12T01:14:50.580Z,16.37
2022-12-12T01:17:18.058Z,14.77
2022-12-12T01:19:45.485Z,16.40
2022-12-12T01:22:12.833Z,15.63
2022-12-12T01:24:40.258Z,15.93
2022-12-12T01:27:07.528Z,16.53
2022-12-12T01:29:35.575Z,16.17
2022-12-12T01:32:03.161Z,16.33
2022-12-12T01:34:30.613Z,16.50
2022-12-12T01:36:58.267Z,16.43
2022-12-12T01:39:25.514Z,16.70
2022-12-12T01:41:52.766Z,16.47
2022-12-12T01:44:48.403Z,17.27
2022-12-12T01:47:18.069Z,17.30
2022-12-12T01:49:52.101Z,17.97
2022-12-12T01:52:28.660Z,17.60
2022-12-12T01:54:59.861Z,16.80
2022-12-12T01:57:49.605Z,19.80
2022-12-12T02:00:18.704Z,17.67
2022-12-12T02:02:47.413Z,18.00
2022-12-12T02:05:40.092Z,17.77
2022-12-12T02:08:09.036Z,19.67
2022-12-12T02:10:36.675Z,18.03
2022-12-12T02:13:10.094Z,17.93
2022-12-12T02:15:50.990Z,18.50
2022-12-12T02:18:46.023Z,18.73
2022-12-12T02:21:31.777Z,19.27
2022-12-12T02:24:26.479Z,18.87
2022-12-12T02:27:30.584Z,19.47
2022-12-12T02:30:22.758Z,18.30
2022-12-12T02:33:14.913Z,20.47
2022-12-12T02:36:06.063Z,18.90
2022-12-12T02:38:39.590Z,18.93
2022-12-12T02:41:35.763Z,18.53
2022-12-12T02:44:14.622Z,18.23
2022-12-12T02:46:56.284Z,17.83
2022-12-12T02:49:38.978Z,17.87
2022-12-12T02:52:08.579Z,19.50
2022-12-12T02:54:36.812Z,17.07
2022-12-12T02:57:05.477Z,19.33
2022-12-12T02:59:40.572Z,19.27
2022-12-12T03:02:33.044Z,18.50
2022-12-12T03:05:28.157Z,20.90
2022-12-12T03:08:28.187Z,20.93
2022-12-12T03:11:12.103Z,19.57
2022-12-12T03:13:58.910Z,19.67
2022-12-12T03:16:45.173Z,19.10
2022-12-12T03:19:34.477Z,20.43
2022-12-12T03:22:11.992Z,20.47
2022-12-12T03:25:02.208Z,19.40
2022-12-12T03:27:51.798Z,19.87
2022-12-12T03:30:20.419Z,20.90
2022-12-12T03:33:25.664Z,19.73
2022-12-12T03:36:08.104Z,19.83
2022-12-12T03:38:40.074Z,20.63
2022-12-12T03:41:13.449Z,20.43
2022-12-12T03:43:54.711Z,19.90
2022-12-12T03:46:27.408Z,20.97
2022-12-12T03:49:06.898Z,20.40
2022-12-12T03:51:40.416Z,22.20
2022-12-12T03:54:11.176Z,19.93
2022-12-12T03:57:00.013Z,20.47
2022-12-12T03:59:39.335Z,21.80
2022-12-12T04:02:25.035Z,22.50
2022-12-12T04:04:57.500Z,21.00
2022-12-12T04:07:39.447Z,20.40
2022-12-12T04:10:29.854Z,21.77
2022-12-12T04:13:04.607Z,21.73
2022-12-12T04:15:47.107Z,21.57
2022-12-12T04:18:37.859Z,20.63
2022-12-12T04:21:51.493Z,21.13
2022-12-12T04:24:18.946Z,20.67
2022-12-12T04:26:49.303Z,20.47
2022-12-12T04:29:48.818Z,21.77
2022-12-12T04:32:30.089Z,18.17
2022-12-12T04:35:02.810Z,23.10
2022-12-12T04:37:39.460Z,21.80
2022-12-12T04:40:10.607Z,21.23
2022-12-12T04:42:42.501Z,22.73
2022-12-12T04:45:15.917Z,21.60
2022-12-12T04:47:47.543Z,23.23
2022-12-12T04:50:16.514Z,22.30
2022-12-12T04:52:45.626Z,22.03
2022-12-12T04:55:24.884Z,22.67
2022-12-12T04:57:55.048Z,22.23
2022-12-12T05:00:24.760Z,22.63
2022-12-12T05:03:21.603Z,23.00
2022-12-12T05:05:55.011Z,21.83
2022-12-12T05:08:36.389Z,22.37
2022-12-12T05:11:06.320Z,22.90
2022-12-12T05:13:36.979Z,23.80
2022-12-12T05:16:21.935Z,22.40
2022-12-12T05:18:49.584Z,21.67
2022-12-12T05:21:16.858Z,23.53
2022-12-12T05:23:44.123Z,21.60
2022-12-12T05:26:25.088Z,21.67
2022-12-12T05:28:52.373Z,23.13
2022-12-12T05:31:20.067Z,21.57
2022-12-12T05:33:47.687Z,21.30
2022-12-12T05:36:15.188Z,23.03
2022-12-12T05:38:43.341Z,22.80
2022-12-12T05:41:10.743Z,28.00
2022-12-12T05:43:38.466Z,21.97
2022-12-12T05:46:06.922Z,25.10
2022-12-12T05:48:35.179Z,23.53
2022-12-12T05:51:03.491Z,23.10
2022-12-12T05:53:31.463Z,21.40
2022-12-12T05:55:58.827Z,21.53
2022-12-12T05:58:26.111Z,22.43
2022-12-12T06:00:57.242Z,22.20
2022-12-12T06:03:27.951Z,21.50
2022-12-12T06:05:55.171Z,20.87
2022-12-12T06:08:25.199Z,21.53
2022-12-12T06:10:52.808Z,21.77
2022-12-12T06:13:20.518Z,20.20
2022-12-12T06:15:47.814Z,20.97
2022-12-12T06:18:15.382Z,19.93
2022-12-12T06:20:42.687Z,19.73
2022-12-12T06:23:10.610Z,20.00
2022-12-12T06:25:37.991Z,19.67
2022-12-12T06:28:06.698Z,20.80
2022-12-12T06:30:34.270Z,18.43
2022-12-12T06:33:01.614Z,19.23
2022-12-12T06:35:28.873Z,19.60
2022-12-12T06:37:56.228Z,20.83
2022-12-12T06:40:23.913Z,20.43
2022-12-12T06:42:51.117Z,20.90
2022-12-12T06:45:18.512Z,20.43
2022-12-12T06:47:45.945Z,22.10
2022-12-12T06:50:13.884Z,20.93
2022-12-12T06:52:41.645Z,20.37
2022-12-12T06:55:10.198Z,20.83
2022-12-12T06:57:37.708Z,20.73
2022-12-12T07:00:05.596Z,21.97
2022-12-12T07:02:32.997Z,20.03
2022-12-12T07:05:00.205Z,20.40
2022-12-12T07:07:30.492Z,19.43
2022-12-12T07:09:57.832Z,20.87
2022-12-12T07:12:25.238Z,18.07
2022-12-12T07:14:52.710Z,18.10
2022-12-12T07:17:20.025Z,19.07
2022-12-12T07:19:47.294Z,19.03
2022-12-12T07:22:14.531Z,18.03
2022-12-12T07:24:41.783Z,18.50
2022-12-12T07:27:09.023Z,18.60
2022-12-12T07:29:37.638Z,17.93
2022-12-12T07:32:05.177Z,18.73
2022-12-12T07:34:32.823Z,17.67
2022-12-12T07:37:03.097Z,18.03
2022-12-12T07:39:32.637Z,18.93
2022-12-12T07:42:00.433Z,17.47
2022-12-12T07:44:27.814Z,17.87
2022-12-12T07:46:57.456Z,17.53
2022-12-12T07:49:24.876Z,18.83
2022-12-12T07:51:52.196Z,19.03
2022-12-12T07:54:19.480Z,17.47
2022-12-12T07:56:47.233Z,19.10
2022-12-12T07:59:14.458Z,17.70
2022-12-12T08:01:41.880Z,19.93
2022-12-12T08:04:09.199Z,19.50
2022-12-12T08:06:37.657Z,16.73
2022-12-12T08:09:06.133Z,17.97
2022-12-12T08:11:33.520Z,18.03
2022-12-12T08:14:00.731Z,16.17
2022-12-12T08:16:31.741Z,17.40
2022-12-12T08:18:59.602Z,16.27
2022-12-12T08:21:28.024Z,17.37
2022-12-12T08:24:02.673Z,16.10
2022-12-12T08:26:32.196Z,17.10
2022-12-12T08:29:00.126Z,15.43
2022-12-12T08:31:28.119Z,16.77
2022-12-12T08:33:55.951Z,16.53
2022-12-12T08:36:27.113Z,17.20
2022-12-12T08:38:54.444Z,16.30
2022-12-12T08:41:21.874Z,15.23
2022-12-12T08:43:50.094Z,14.80
2022-12-12T08:46:18.865Z,16.23
2022-12-12T08:48:47.166Z,19.63
2022-12-12T08:51:16.225Z,15.80
2022-12-12T08:53:51.278Z,14.30
2022-12-12T08:56:19.514Z,15.50
2022-12-12T08:58:47.483Z,15.07
2022-12-12T09:01:20.772Z,15.50
2022-12-12T09:03:48.786Z,16.10
2022-12-12T09:06:17.283Z,16.43
2022-12-12T09:08:45.051Z,15.80
2022-12-12T09:11:12.573Z,13.63
2022-12-12T09:13:41.093Z,13.30
2022-12-12T09:16:09.920Z,14.60
2022-12-12T09:18:40.819Z,13.37
2022-12-12T09:21:12.324Z,13.87
2022-12-12T09:23:39.663Z,14.73
2022-12-12T09:26:08.989Z,14.47
2022-12-12T09:28:36.560Z,14.20
2022-12-12T09:31:08.758Z,12.97
2022-12-12T09:33:36.643Z,13.67
2022-12-12T09:36:07.005Z,13.57
2022-12-12T09:38:36.120Z,13.77
2022-12-12T09:41:14.431Z,14.53
2022-12-12T09:43:51.887Z,14.73
2022-12-12T09:46:39.430Z,14.77
2022-12-12T09:49:27.946Z,13.97
2022-12-12T09:51:57.131Z,13.73
2022-12-12T09:54:26.763Z,13.60
2022-12-12T09:57:12.835Z,15.97
2022-12-12T09:59:49.115Z,16.17
2022-12-12T10:02:54.868Z,15.07
2022-12-12T10:05:43.509Z,14.90
2022-12-12T10:08:36.030Z,14.80
2022-12-12T10:11:30.148Z,17.07
2022-12-12T10:14:01.726Z,14.30
2022-12-12T10:16:32.732Z,14.27
2022-12-12T10:19:27.648Z,13.97
2022-12-12T10:22:00.150Z,16.30
2022-12-12T10:24:37.241Z,17.50
2022-12-12T10:27:12.774Z,24.37
2022-12-12T10:29:46.731Z,24.43
2022-12-12T10:32:20.245Z,17.47
2022-12-12T10:35:20.014Z,17.93
2022-12-12T10:38:22.382Z,14.87
2022-12-12T10:41:27.536Z,18.03
2022-12-12T10:44:33.909Z,14.77
2022-12-12T10:47:10.959Z,15.77
2022-12-12T10:49:38.516Z,15.17
2022-12-12T10:52:15.474Z,14.77
2022-12-12T10:54:48.749Z,15.90
2022-12-12T10:57:28.283Z,13.83
2022-12-12T10:59:57.716Z,16.23
2022-12-12T11:02:40.967Z,12.83
2022-12-12T11:05:21.938Z,12.50
2022-12-12T11:08:01.726Z,14.13
2022-12-12T11:10:35.096Z,13.80
2022-12-12T11:13:11.611Z,12.17
2022-12-12T11:15:41.320Z,12.07
2022-12-12T11:18:22.588Z,14.53
2022-12-12T11:21:09.763Z,12.87
2022-12-12T11:23:47.513Z,12.63
2022-12-12T11:26:17.951Z,12.93
2022-12-12T11:28:52.538Z,12.33
2022-12-12T11:31:23.885Z,12.43
2022-12-12T11:33:54.827Z,12.17
2022-12-12T11:36:42.892Z,12.70
2022-12-12T11:39:37.992Z,12.17
2022-12-12T11:42:14.061Z,12.83
2022-12-12T11:44:43.386Z,13.83
2022-12-12T11:47:24.250Z,15.20
2022-12-12T11:50:00.240Z,15.60
2022-12-12T11:52:32.750Z,13.77
2022-12-12T11:55:01.180Z,20.47
2022-12-12T11:58:06.524Z,22.17
2022-12-12T12:00:44.505Z,14.13
2022-12-12T12:03:34.321Z,18.53
2022-12-12T12:06:35.431Z,16.57
2022-12-12T12:09:06.049Z,22.60
2022-12-12T12:11:36.154Z,15.97
2022-12-12T12:14:42.334Z,21.23
2022-12-12T12:17:29.048Z,18.87
2022-12-12T12:20:19.814Z,15.90
2022-12-12T12:23:02.389Z,13.00
2022-12-12T12:25:35.434Z,16.83
2022-12-12T12:28:10.231Z,17.83
2022-12-12T12:30:46.200Z,17.03
2022-12-12T12:33:43.404Z,44.53
2022-12-12T12:36:24.369Z,20.17
2022-12-12T12:39:29.373Z,15.50
2022-12-12T12:42:37.743Z,14.87
2022-12-12T12:45:31.965Z,15.73
2022-12-12T12:48:12.062Z,15.13
2022-12-12T12:50:44.502Z,15.97
2022-12-12T12:53:36.320Z,15.30
2022-12-12T12:56:26.296Z,14.47
2022-12-12T12:59:10.442Z,14.03
2022-12-12T13:01:46.466Z,14.63
2022-12-12T13:04:36.909Z,14.83
2022-12-12T13:07:14.386Z,13.53
2022-12-12T13:09:47.316Z,13.67
2022-12-12T13:12:48.484Z,14.70
2022-12-12T13:15:33.639Z,13.73
2022-12-12T13:18:09.469Z,17.10
2022-12-12T13:20:41.146Z,13.60
2022-12-12T13:23:29.737Z,14.50
2022-12-12T13:26:08.300Z,14.10
2022-12-12T13:29:03.012Z,14.27
2022-12-12T13:31:56.514Z,13.67
2022-12-12T13:34:27.298Z,13.40
2022-12-12T13:36:56.041Z,16.00
2022-12-12T13:39:35.814Z,30.10
2022-12-12T13:42:08.494Z,33.40
2022-12-12T13:44:44.809Z,15.43
2022-12-12T13:47:24.089Z,15.63
2022-12-12T13:49:58.684Z,14.27
2022-12-12T13:52:44.673Z,15.47
2022-12-12T13:55:11.911Z,26.67
2022-12-12T13:58:00.158Z,19.67
2022-12-12T14:00:40.383Z,19.83
2022-12-12T14:03:12.482Z,15.70
2022-12-12T14:05:45.012Z,13.07
2022-12-12T14:08:12.475Z,11.93
2022-12-12T14:10:45.831Z,14.17
2022-12-12T14:13:43.101Z,14.93
2022-12-12T14:16:17.303Z,11.73
2022-12-12T14:18:50.845Z,6.77
2022-12-12T14:21:20.623Z,9.90
2022-12-12T14:23:51.972Z,10.77
2022-12-12T14:26:39.460Z,9.70
2022-12-12T14:29:20.455Z,11.23
2022-12-12T14:31:53.050Z,8.93
2022-12-12T14:34:28.603Z,10.33
2022-12-12T14:37:28.824Z,9.10
2022-12-12T14:40:05.801Z,9.83
2022-12-12T14:43:17.804Z,10.00
2022-12-12T14:45:52.648Z,9.53
2022-12-12T14:48:23.167Z,9.37
2022-12-12T14:50:55.518Z,8.43
2022-12-12T14:53:26.344Z,9.60
2022-12-12T14:56:00.587Z,8.53
2022-12-12T14:58:34.301Z,9.13
2022-12-12T15:01:03.978Z,8.97
2022-12-12T15:03:42.185Z,8.77
2022-12-12T15:06:41.218Z,8.83
2022-12-12T15:09:22.549Z,10.37
2022-12-12T15:11:51.144Z,8.90
2022-12-12T15:14:20.473Z,8.33
2022-12-12T15:17:00.619Z,8.50
2022-12-12T15:20:04.410Z,8.77
2022-12-12T15:22:34.460Z,10.53
2022-12-12T15:25:18.275Z,10.13
2022-12-12T15:27:54.990Z,8.73
2022-12-12T15:30:41.441Z,10.27
2022-12-12T15:33:21.997Z,9.60
2022-12-12T15:35:53.976Z,8.40
2022-12-12T15:38:24.070Z,9.27
2022-12-12T15:40:54.557Z,8.23
2022-12-12T15:43:24.621Z,8.63
2022-12-12T15:46:15.138Z,8.40
2022-12-12T15:48:45.833Z,8.03
2022-12-12T15:51:16.355Z,8.20
2022-12-12T15:53:50.295Z,8.93
2022-12-12T15:56:20.398Z,8.40
2022-12-12T15:58:49.800Z,8.17
2022-12-12T16:01:22.502Z,9.37
2022-12-12T16:04:07.439Z,8.37
2022-12-12T16:06:43.630Z,7.60
2022-12-12T16:09:10.992Z,7.87
2022-12-12T16:11:47.669Z,8.43
2022-12-12T16:14:40.618Z,10.43
2022-12-12T16:17:12.276Z,11.17
2022-12-12T16:19:53.902Z,8.90
2022-12-12T16:22:40.083Z,10.13
2022-12-12T16:25:25.869Z,11.40
2022-12-12T16:28:13.474Z,9.80
2022-12-12T16:30:43.702Z,10.47
2022-12-12T16:33:37.964Z,13.63
2022-12-12T16:36:08.721Z,10.20
2022-12-12T16:38:36.503Z,14.43
2022-12-12T16:41:07.390Z,10.60
2022-12-12T16:43:35.213Z,9.90
2022-12-12T16:46:02.707Z,10.37
2022-12-12T16:48:40.437Z,9.40
2022-12-12T16:51:15.005Z,10.67
2022-12-12T16:53:42.694Z,11.70
2022-12-12T16:56:11.823Z,10.47
2022-12-12T16:58:39.324Z,9.67
2022-12-12T17:01:07.518Z,10.07
2022-12-12T17:03:38.098Z,8.50
2022-12-12T17:06:07.503Z,10.17
2022-12-12T17:08:35.592Z,10.03
2022-12-12T17:11:09.885Z,9.67
2022-12-12T17:13:41.267Z,8.67
2022-12-12T17:16:08.893Z,8.70
2022-12-12T17:18:36.203Z,7.40
2022-12-12T17:21:03.453Z,10.63
2022-12-12T17:23:30.689Z,10.90
2022-12-12T17:26:03.613Z,8.00
2022-12-12T17:28:34.392Z,11.67
2022-12-12T17:31:02.628Z,10.00
2022-12-12T17:33:30.499Z,9.20
2022-12-12T17:36:00.490Z,6.90
2022-12-12T17:38:28.083Z,8.47
2022-12-12T17:40:57.126Z,9.17
2022-12-12T17:43:26.030Z,9.67
2022-12-12T17:46:03.528Z,9.00
2022-12-12T17:48:33.056Z,9.00
2022-12-12T17:51:06.438Z,11.17
2022-12-12T17:53:39.734Z,9.63
2022-12-12T17:56:09.645Z,9.57
2022-12-12T17:58:38.836Z,9.13
2022-12-12T18:01:18.838Z,9.80
2022-12-12T18:03:46.902Z,9.33
2022-12-12T18:06:16.167Z,8.40
2022-12-12T18:08:44.873Z,9.53
2022-12-12T18:11:15.978Z,9.90
2022-12-12T18:13:44.206Z,8.90
2022-12-12T18:16:13.377Z,9.60
2022-12-12T18:18:41.639Z,9.60
2022-12-12T18:21:42.833Z,9.23
2022-12-12T18:24:03.295Z,8.70
2022-12-12T18:26:30.676Z,11.10
2022-12-12T18:29:00.774Z,9.70
2022-12-12T18:31:29.562Z,10.50
2022-12-12T18:33:57.117Z,8.87
2022-12-12T18:36:27.661Z,8.93
2022-12-12T18:39:00.064Z,9.37
2022-12-12T18:41:28.748Z,10.03
2022-12-12T18:43:56.300Z,10.00
2022-12-12T18:46:26.754Z,9.87
2022-12-12T18:48:54.215Z,8.53
2022-12-12T18:51:24.871Z,9.00
2022-12-12T18:53:55.310Z,9.97
2022-12-12T18:56:25.259Z,9.87
2022-12-12T18:58:57.005Z,8.93
2022-12-12T19:01:27.827Z,8.00
2022-12-12T19:03:57.143Z,8.10
2022-12-12T19:06:31.947Z,6.83
2022-12-12T19:09:00.032Z,7.53
2022-12-12T19:11:27.447Z,7.43
2022-12-12T19:13:54.804Z,8.13
2022-12-12T19:16:23.047Z,6.93
2022-12-12T19:18:50.300Z,7.13
2022-12-12T19:21:21.536Z,7.53
2022-12-12T19:23:49.842Z,6.63
2022-12-12T19:26:28.295Z,5.93
2022-12-12T19:29:03.866Z,6.50
2022-12-12T19:31:34.815Z,6.10
2022-12-12T19:34:04.466Z,7.00
2022-12-12T19:36:32.026Z,6.50
2022-12-12T19:39:01.238Z,7.40
2022-12-12T19:41:29.417Z,6.80
2022-12-12T19:43:58.916Z,7.17
2022-12-12T19:46:28.372Z,6.73
2022-12-12T19:49:00.951Z,6.87
2022-12-12T19:51:34.453Z,7.13
2022-12-12T19:54:02.836Z,6.67
2022-12-12T19:56:33.477Z,7.50
2022-12-12T19:59:01.988Z,8.07
2022-12-12T20:01:32.050Z,8.00
2022-12-12T20:04:06.172Z,8.00
2022-12-12T20:06:47.192Z,8.00
2022-12-12T20:09:17.376Z,7.90
2022-12-12T20:11:45.723Z,7.70
2022-12-12T20:14:19.691Z,8.60
2022-12-12T20:16:47.537Z,7.13
2022-12-12T20:19:16.225Z,7.40
2022-12-12T20:22:02.816Z,8.90
2022-12-12T20:24:32.714Z,8.03
2022-12-12T20:27:00.932Z,8.77
2022-12-12T20:29:28.316Z,8.37
2022-12-12T20:31:55.766Z,8.87
2022-12-12T20:34:25.064Z,7.67
2022-12-12T20:36:52.725Z,8.37
2022-12-12T20:39:22.433Z,8.00
2022-12-12T20:41:53.543Z,8.10
2022-12-12T20:44:20.950Z,7.53
2022-12-12T20:46:48.273Z,7.80
2022-12-12T20:49:22.409Z,7.67
2022-12-12T20:51:58.254Z,8.67
2022-12-12T20:54:28.645Z,8.20
2022-12-12T20:56:57.552Z,9.07
2022-12-12T20:59:25.965Z,9.67
2022-12-12T21:01:53.796Z,9.17
2022-12-12T21:04:22.152Z,7.97
2022-12-12T21:06:51.394Z,7.73
2022-12-12T21:09:25.739Z,7.83
2022-12-12T21:11:55.400Z,7.57
2022-12-12T21:14:23.371Z,8.73
2022-12-12T21:16:50.850Z,8.47
2022-12-12T21:19:19.203Z,8.10
2022-12-12T21:21:46.998Z,7.93
2022-12-12T21:24:16.155Z,8.07
2022-12-12T21:26:43.754Z,7.80
2022-12-12T21:29:11.258Z,8.47
2022-12-12T21:31:48.153Z,8.43
2022-12-12T21:34:16.810Z,7.53
2022-12-12T21:36:44.770Z,8.87
2022-12-12T21:39:12.857Z,8.70
2022-12-12T21:41:42.257Z,10.03
2022-12-12T21:44:10.323Z,10.80
2022-12-12T21:46:39.642Z,10.50
2022-12-12T21:49:25.624Z,9.47
2022-12-12T21:51:55.307Z,9.13
2022-12-12T21:54:23.050Z,9.60
2022-12-12T21:56:50.432Z,8.90
2022-12-12T21:59:17.832Z,9.27
2022-12-12T22:01:45.414Z,10.63
2022-12-12T22:04:13.665Z,10.77
2022-12-12T22:06:41.316Z,9.63
2022-12-12T22:09:10.658Z,10.70
2022-12-12T22:11:41.085Z,11.13
2022-12-12T22:14:19.187Z,10.43
2022-12-12T22:16:46.827Z,9.17
2022-12-12T22:19:15.739Z,8.47
2022-12-12T22:21:46.289Z,7.77
2022-12-12T22:24:14.025Z,8.27
2022-12-12T22:26:42.829Z,5.93
2022-12-12T22:29:16.201Z,6.93
2022-12-12T22:31:45.306Z,6.37
2022-12-12T22:34:16.011Z,6.87
2022-12-12T22:36:44.385Z,7.77
2022-12-12T22:39:24.046Z,7.43
2022-12-12T22:41:51.750Z,7.43
2022-12-12T22:44:21.040Z,6.70
2022-12-12T22:46:50.440Z,6.07
2022-12-12T22:49:20.778Z,6.10
2022-12-12T22:51:49.024Z,6.27
2022-12-12T22:54:16.356Z,6.93
2022-12-12T22:56:43.641Z,6.47
2022-12-12T22:59:13.685Z,5.80
2022-12-12T23:01:41.974Z,7.07
2022-12-12T23:04:13.405Z,6.17
2022-12-12T23:06:41.104Z,6.20
2022-12-12T23:09:17.532Z,5.80
2022-12-12T23:11:46.320Z,6.50
2022-12-12T23:14:16.762Z,5.83
2022-12-12T23:16:44.837Z,6.60
2022-12-12T23:19:15.190Z,6.10
2022-12-12T23:21:42.786Z,6.20
2022-12-12T23:24:10.862Z,6.40
2022-12-12T23:26:38.769Z,6.07
2022-12-12T23:29:09.472Z,6.20
2022-12-12T23:31:38.832Z,6.40
2022-12-12T23:34:15.161Z,6.70
2022-12-12T23:36:43.967Z,6.40
2022-12-12T23:39:12.418Z,6.73
2022-12-12T23:41:40.469Z,6.77
2022-12-12T23:44:08.561Z,6.63
2022-12-12T23:46:36.613Z,6.53
2022-12-12T23:49:07.714Z,5.63
2022-12-12T23:51:40.384Z,6.80
2022-12-12T23:54:11.427Z,6.60
2022-12-12T23:56:39.569Z,6.23
2022-12-12T23:59:07.306Z,6.40
